createdAt,value
2023-04-03T00:01:09.669Z,10.15
2023-04-03T00:03:37.736Z,10.02
2023-04-03T00:06:07.651Z,9.02
2023-04-03T00:08:35.288Z,10.02
2023-04-03T00:11:03.133Z,8.70
2023-04-03T00:13:31.444Z,9.65
2023-04-03T00:15:58.987Z,7.97
2023-04-03T00:18:26.599Z,7.50
2023-04-03T00:20:54.142Z,8.93
2023-04-03T00:23:21.756Z,8.63
2023-04-03T00:25:49.313Z,8.18
2023-04-03T00:28:16.875Z,7.82
2023-04-03T00:30:44.433Z,9.02
2023-04-03T00:33:15.548Z,8.55
2023-04-03T00:35:43.385Z,8.40
2023-04-03T00:38:11.152Z,8.57
2023-04-03T00:40:40.487Z,9.05
2023-04-03T00:43:13.736Z,8.07
2023-04-03T00:45:42.650Z,6.28
2023-04-03T00:48:13.487Z,7.57
2023-04-03T00:50:42.237Z,6.97
2023-04-03T00:53:12.836Z,7.32
2023-04-03T00:55:40.823Z,7.35
2023-04-03T00:58:09.312Z,8.02
2023-04-03T01:00:38.709Z,7.68
2023-04-03T01:03:06.602Z,10.40
2023-04-03T01:05:34.956Z,10.55
2023-04-03T01:08:03.039Z,9.35
2023-04-03T01:10:30.598Z,9.45
2023-04-03T01:12:59.191Z,8.23
2023-04-03T01:15:29.895Z,7.18
2023-04-03T01:17:59.349Z,8.37
2023-04-03T01:20:35.908Z,7.35
2023-04-03T01:23:12.700Z,8.43
2023-04-03T01:25:48.886Z,9.45
2023-04-03T01:28:18.365Z,9.45
2023-04-03T01:30:46.026Z,8.60
2023-04-03T01:33:13.644Z,7.85
2023-04-03T01:35:41.365Z,7.50
2023-04-03T01:38:08.983Z,7.90
2023-04-03T01:40:37.009Z,9.57
2023-04-03T01:43:04.849Z,7.45
2023-04-03T01:45:32.442Z,7.47
2023-04-03T01:48:00.318Z,7.53
2023-04-03T01:50:27.976Z,7.20
2023-04-03T01:52:55.703Z,6.50
2023-04-03T01:55:23.326Z,7.90
2023-04-03T01:57:51.066Z,7.90
2023-04-03T02:00:18.950Z,7.53
2023-04-03T02:02:46.589Z,9.68
2023-04-03T02:05:15.408Z,7.57
2023-04-03T02:07:42.989Z,12.20
2023-04-03T02:10:10.829Z,7.10
2023-04-03T02:12:38.448Z,6.47
2023-04-03T02:15:06.344Z,10.68
2023-04-03T02:17:34.084Z,7.38
2023-04-03T02:20:01.654Z,6.25
2023-04-03T02:22:29.236Z,7.70
2023-04-03T02:24:57.019Z,6.43
2023-04-03T02:27:24.614Z,6.95
2023-04-03T02:29:52.278Z,7.97
2023-04-03T02:32:20.957Z,6.32
2023-04-03T02:34:48.992Z,4.70
2023-04-03T02:37:17.135Z,7.03
2023-04-03T02:39:47.066Z,6.20
2023-04-03T02:42:15.428Z,5.50
2023-04-03T02:44:43.093Z,5.72
2023-04-03T02:47:11.428Z,5.78
2023-04-03T02:49:39.025Z,6.22
2023-04-03T02:52:06.615Z,5.63
2023-04-03T02:54:34.183Z,6.65
2023-04-03T02:57:05.236Z,6.93
2023-04-03T02:59:32.865Z,8.75
2023-04-03T03:02:00.534Z,7.88
2023-04-03T03:04:28.221Z,4.97
2023-04-03T03:06:55.898Z,5.95
2023-04-03T03:09:23.524Z,4.65
2023-04-03T03:11:51.168Z,5.95
2023-04-03T03:14:18.706Z,4.47
2023-04-03T03:16:46.374Z,5.65
2023-04-03T03:19:13.921Z,5.25
2023-04-03T03:21:41.604Z,6.43
2023-04-03T03:24:09.226Z,4.70
2023-04-03T03:26:36.878Z,4.50
2023-04-03T03:29:05.280Z,4.82
2023-04-03T03:31:33.563Z,5.35
2023-04-03T03:34:01.206Z,5.78
2023-04-03T03:36:28.832Z,4.10
2023-04-03T03:38:56.390Z,4.25
2023-04-03T03:41:25.158Z,5.55
2023-04-03T03:43:52.846Z,4.90
2023-04-03T03:46:20.745Z,4.93
2023-04-03T03:48:48.404Z,5.38
2023-04-03T03:51:17.521Z,5.07
2023-04-03T03:53:45.167Z,5.43
2023-04-03T03:56:15.940Z,5.10
2023-04-03T03:58:44.245Z,4.65
2023-04-03T04:01:11.914Z,6.93
2023-04-03T04:03:44.120Z,4.57
2023-04-03T04:06:14.514Z,5.18
2023-04-03T04:08:42.199Z,4.15
2023-04-03T04:11:12.217Z,4.70
2023-04-03T04:13:41.645Z,5.38
2023-04-03T04:16:10.840Z,3.90
2023-04-03T04:18:39.384Z,4.35
2023-04-03T04:21:07.100Z,3.78
2023-04-03T04:23:34.786Z,5.50
2023-04-03T04:26:02.636Z,4.57
2023-04-03T04:28:34.475Z,4.45
2023-04-03T04:31:04.040Z,5.18
2023-04-03T04:33:32.438Z,6.75
2023-04-03T04:36:03.361Z,8.52
2023-04-03T04:38:31.039Z,3.58
2023-04-03T04:40:58.815Z,4.40
2023-04-03T04:43:27.082Z,6.32
2023-04-03T04:46:03.010Z,3.83
2023-04-03T04:48:32.904Z,4.38
2023-04-03T04:51:01.140Z,4.93
2023-04-03T04:53:29.046Z,5.72
2023-04-03T04:55:56.644Z,4.13
2023-04-03T04:58:24.386Z,3.83
2023-04-03T05:00:59.670Z,4.93
2023-04-03T05:03:27.490Z,4.43
2023-04-03T05:05:55.460Z,4.05
2023-04-03T05:08:23.120Z,3.20
2023-04-03T05:10:50.870Z,5.13
2023-04-03T05:13:19.424Z,5.43
2023-04-03T05:15:47.671Z,3.97
2023-04-03T05:18:16.152Z,5.38
2023-04-03T05:20:44.356Z,5.00
2023-04-03T05:23:12.930Z,5.85
2023-04-03T05:25:41.487Z,3.90
2023-04-03T05:28:10.743Z,6.35
2023-04-03T05:30:38.377Z,4.93
2023-04-03T05:33:06.956Z,4.80
2023-04-03T05:35:42.272Z,4.22
2023-04-03T05:38:12.679Z,5.57
2023-04-03T05:40:40.411Z,4.85
2023-04-03T05:43:08.366Z,6.30
2023-04-03T05:45:39.009Z,5.38
2023-04-03T05:48:07.727Z,4.13
2023-04-03T05:50:35.732Z,5.70
2023-04-03T05:53:03.818Z,6.60
2023-04-03T05:55:33.730Z,4.85
2023-04-03T05:58:01.385Z,9.02
2023-04-03T06:00:29.846Z,5.43
2023-04-03T06:03:02.634Z,7.05
2023-04-03T06:05:31.008Z,4.97
2023-04-03T06:07:58.739Z,5.57
2023-04-03T06:10:28.284Z,5.10
2023-04-03T06:12:55.976Z,6.78
2023-04-03T06:15:24.737Z,9.35
2023-04-03T06:17:52.413Z,6.97
2023-04-03T06:20:20.102Z,5.18
2023-04-03T06:22:47.701Z,10.93
2023-04-03T06:25:15.532Z,6.97
2023-04-03T06:27:43.072Z,5.25
2023-04-03T06:30:11.872Z,8.63
2023-04-03T06:32:59.980Z,6.32
2023-04-03T06:35:36.102Z,8.93
2023-04-03T06:38:08.732Z,4.93
2023-04-03T06:40:37.432Z,4.75
2023-04-03T06:43:05.957Z,6.25
2023-04-03T06:45:33.692Z,6.30
2023-04-03T06:48:01.408Z,6.25
2023-04-03T06:50:29.191Z,5.00
2023-04-03T06:52:56.847Z,6.50
2023-04-03T06:55:24.449Z,4.72
2023-04-03T06:57:52.015Z,5.70
2023-04-03T07:00:20.238Z,5.93
2023-04-03T07:02:48.147Z,5.13
2023-04-03T07:05:15.924Z,4.90
2023-04-03T07:07:43.511Z,4.72
2023-04-03T07:10:11.848Z,4.65
2023-04-03T07:12:39.375Z,4.75
2023-04-03T07:15:07.895Z,4.30
2023-04-03T07:17:36.843Z,5.85
2023-04-03T07:20:05.098Z,4.45
2023-04-03T07:22:32.692Z,3.63
2023-04-03T07:25:00.817Z,4.68
2023-04-03T07:27:28.920Z,4.93
2023-04-03T07:29:57.085Z,7.28
2023-04-03T07:32:24.748Z,7.13
2023-04-03T07:34:52.464Z,7.30
2023-04-03T07:37:20.010Z,5.53
2023-04-03T07:39:47.858Z,7.43
2023-04-03T07:42:15.602Z,5.38
2023-04-03T07:44:43.651Z,5.28
2023-04-03T07:47:11.191Z,7.03
2023-04-03T07:49:41.265Z,5.30
2023-04-03T07:52:09.990Z,5.85
2023-04-03T07:54:37.711Z,7.10
2023-04-03T07:57:06.028Z,5.53
2023-04-03T07:59:33.735Z,5.78
2023-04-03T08:02:01.328Z,11.18
2023-04-03T08:04:29.071Z,6.70
2023-04-03T08:06:56.737Z,5.60
2023-04-03T08:09:24.302Z,4.85
2023-04-03T08:11:54.322Z,6.78
2023-04-03T08:14:22.064Z,6.15
2023-04-03T08:16:50.198Z,5.13
2023-04-03T08:19:25.480Z,5.25
2023-04-03T08:21:54.750Z,5.22
2023-04-03T08:24:22.425Z,6.40
2023-04-03T08:26:50.095Z,6.60
2023-04-03T08:29:18.672Z,6.68
2023-04-03T08:31:47.193Z,7.22
2023-04-03T08:34:15.371Z,8.02
2023-04-03T08:36:42.896Z,8.73
2023-04-03T08:39:10.789Z,5.18
2023-04-03T08:41:40.606Z,5.65
2023-04-03T08:44:11.996Z,4.18
2023-04-03T08:46:44.894Z,5.32
2023-04-03T08:49:24.927Z,5.70
2023-04-03T08:51:53.135Z,8.27
2023-04-03T08:54:32.913Z,5.40
2023-04-03T08:57:03.362Z,7.25
2023-04-03T08:59:32.684Z,5.15
2023-04-03T09:02:03.139Z,7.40
2023-04-03T09:04:33.595Z,10.27
2023-04-03T09:07:04.919Z,8.20
2023-04-03T09:09:42.832Z,9.25
2023-04-03T09:12:20.142Z,5.30
2023-04-03T09:14:50.185Z,6.25
2023-04-03T09:17:24.576Z,6.57
2023-04-03T09:19:52.561Z,5.85
2023-04-03T09:22:25.726Z,7.07
2023-04-03T09:25:02.242Z,7.25
2023-04-03T09:27:29.989Z,6.72
2023-04-03T09:29:58.430Z,7.75
2023-04-03T09:32:32.478Z,7.50
2023-04-03T09:35:19.227Z,6.43
2023-04-03T09:37:49.383Z,6.75
2023-04-03T09:40:29.861Z,5.57
2023-04-03T09:43:01.540Z,4.97
2023-04-03T09:45:33.938Z,6.25
2023-04-03T09:48:17.899Z,7.53
2023-04-03T09:50:51.561Z,5.50
2023-04-03T09:53:29.606Z,6.75
2023-04-03T09:55:57.659Z,9.48
2023-04-03T09:58:42.843Z,6.72
2023-04-03T10:01:34.015Z,4.85
2023-04-03T10:04:15.202Z,5.90
2023-04-03T10:06:47.838Z,6.07
2023-04-03T10:09:29.183Z,8.45
2023-04-03T10:12:02.094Z,4.90
2023-04-03T10:14:31.025Z,8.73
2023-04-03T10:17:04.730Z,5.75
2023-04-03T10:19:45.550Z,5.90
2023-04-03T10:22:31.984Z,7.38
2023-04-03T10:25:01.176Z,6.20
2023-04-03T10:27:48.290Z,5.65
2023-04-03T10:30:42.234Z,5.70
2023-04-03T10:33:15.839Z,6.18
2023-04-03T10:35:43.365Z,6.95
2023-04-03T10:38:19.780Z,4.72
2023-04-03T10:40:54.045Z,5.45
2023-04-03T10:43:40.589Z,4.45
2023-04-03T10:46:12.049Z,5.90
2023-04-03T10:48:53.211Z,5.63
2023-04-03T10:51:20.743Z,6.37
2023-04-03T10:53:54.381Z,3.08
2023-04-03T10:56:22.874Z,8.05
2023-04-03T10:58:52.154Z,4.18
2023-04-03T11:01:24.813Z,4.45
2023-04-03T11:03:55.340Z,5.82
2023-04-03T11:06:25.445Z,5.75
2023-04-03T11:08:57.760Z,6.05
2023-04-03T11:11:33.460Z,6.40
2023-04-03T11:14:06.956Z,6.20
2023-04-03T11:16:47.162Z,6.00
2023-04-03T11:19:22.461Z,5.40
2023-04-03T11:22:00.008Z,5.90
2023-04-03T11:24:29.100Z,6.35
2023-04-03T11:26:57.973Z,6.28
2023-04-03T11:29:35.382Z,4.68
2023-04-03T11:32:22.506Z,5.55
2023-04-03T11:34:51.624Z,7.18
2023-04-03T11:37:30.386Z,5.55
2023-04-03T11:39:59.867Z,6.53
2023-04-03T11:42:38.826Z,4.78
2023-04-03T11:45:33.902Z,6.25
2023-04-03T11:48:17.105Z,8.50
2023-04-03T11:50:51.334Z,3.05
2023-04-03T11:53:19.030Z,5.85
2023-04-03T11:55:52.387Z,4.00
2023-04-03T11:58:21.164Z,4.55
2023-04-03T12:00:56.062Z,3.75
2023-04-03T12:03:26.524Z,6.45
2023-04-03T12:05:54.225Z,3.65
2023-04-03T12:08:32.566Z,3.53
2023-04-03T12:11:12.759Z,4.15
2023-04-03T12:13:42.275Z,3.53
2023-04-03T12:16:22.204Z,4.07
2023-04-03T12:19:08.549Z,2.53
2023-04-03T12:21:52.943Z,5.38
2023-04-03T12:24:23.581Z,4.57
2023-04-03T12:26:57.982Z,3.85
2023-04-03T12:29:52.499Z,1.63
2023-04-03T12:32:26.043Z,4.00
2023-04-03T12:34:59.558Z,6.10
2023-04-03T12:37:45.862Z,2.63
2023-04-03T12:40:17.012Z,1.88
2023-04-03T12:42:54.857Z,2.90
2023-04-03T12:45:26.406Z,2.25
2023-04-03T12:47:55.985Z,2.45
2023-04-03T12:50:25.364Z,1.98
2023-04-03T12:52:56.457Z,6.93
2023-04-03T12:55:24.131Z,2.22
2023-04-03T12:57:51.727Z,5.20
2023-04-03T13:00:23.749Z,3.03
2023-04-03T13:02:51.557Z,4.43
2023-04-03T13:05:20.755Z,2.10
2023-04-03T13:07:58.269Z,4.47
2023-04-03T13:10:25.974Z,2.38
2023-04-03T13:12:55.333Z,2.63
2023-04-03T13:15:25.743Z,3.78
2023-04-03T13:17:54.499Z,2.00
2023-04-03T13:20:23.406Z,3.22
2023-04-03T13:22:53.871Z,3.70
2023-04-03T13:25:22.868Z,4.97
2023-04-03T13:27:53.899Z,2.33
2023-04-03T13:30:32.166Z,4.93
2023-04-03T13:33:01.630Z,2.67
2023-04-03T13:35:37.983Z,3.38
2023-04-03T13:38:07.969Z,2.00
2023-04-03T13:40:46.991Z,3.60
2023-04-03T13:43:19.926Z,4.22
2023-04-03T13:46:07.845Z,2.40
2023-04-03T13:48:43.003Z,3.20
2023-04-03T13:51:10.585Z,2.45
2023-04-03T13:53:43.874Z,5.40
2023-04-03T13:56:19.870Z,2.45
2023-04-03T13:58:59.030Z,3.45
2023-04-03T14:01:26.704Z,2.03
2023-04-03T14:03:54.368Z,3.47
2023-04-03T14:06:22.940Z,3.50
2023-04-03T14:08:50.483Z,2.63
2023-04-03T14:11:21.688Z,2.50
2023-04-03T14:13:51.224Z,2.22
2023-04-03T14:16:24.043Z,7.72
2023-04-03T14:18:52.154Z,3.22
2023-04-03T14:21:20.782Z,3.33
2023-04-03T14:23:48.779Z,3.72
2023-04-03T14:26:18.569Z,2.28
2023-04-03T14:28:50.248Z,3.53
2023-04-03T14:31:18.581Z,3.88
2023-04-03T14:33:46.568Z,3.83
2023-04-03T14:36:15.612Z,2.03
2023-04-03T14:38:43.621Z,2.88
2023-04-03T14:41:17.042Z,5.28
2023-04-03T14:43:45.870Z,2.60
2023-04-03T14:46:48.347Z,3.30
2023-04-03T14:49:22.899Z,2.05
2023-04-03T14:51:51.485Z,1.48
2023-04-03T14:54:26.164Z,4.20
2023-04-03T14:56:54.223Z,3.33
2023-04-03T14:59:22.531Z,2.88
2023-04-03T15:01:50.618Z,3.55
2023-04-03T15:04:19.811Z,3.22
2023-04-03T15:06:48.344Z,3.72
2023-04-03T15:09:21.456Z,3.67
2023-04-03T15:11:49.882Z,3.03
2023-04-03T15:14:29.569Z,3.00
2023-04-03T15:17:08.386Z,3.42
2023-04-03T15:19:38.883Z,2.25
2023-04-03T15:22:06.873Z,3.45
2023-04-03T15:24:34.442Z,1.42
2023-04-03T15:27:02.408Z,4.32
2023-04-03T15:29:30.043Z,2.97
2023-04-03T15:31:57.588Z,4.20
2023-04-03T15:34:25.403Z,3.03
2023-04-03T15:36:55.745Z,2.08
2023-04-03T15:39:24.298Z,1.80
2023-04-03T15:41:53.032Z,3.00
2023-04-03T15:44:20.676Z,2.15
2023-04-03T15:46:50.717Z,2.85
2023-04-03T15:49:19.376Z,3.33
2023-04-03T15:51:46.972Z,1.75
2023-04-03T15:54:14.567Z,3.35
2023-04-03T15:56:42.095Z,3.17
2023-04-03T15:59:09.669Z,3.88
2023-04-03T16:01:38.002Z,2.83
2023-04-03T16:04:06.318Z,2.75
2023-04-03T16:06:34.741Z,2.47
2023-04-03T16:09:02.479Z,3.50
2023-04-03T16:11:30.187Z,3.47
2023-04-03T16:13:57.802Z,4.15
2023-04-03T16:16:28.138Z,3.08
2023-04-03T16:18:57.274Z,2.97
2023-04-03T16:21:25.142Z,2.65
2023-04-03T16:23:52.759Z,2.60
2023-04-03T16:26:20.960Z,2.10
2023-04-03T16:28:48.511Z,4.03
2023-04-03T16:31:17.250Z,2.22
2023-04-03T16:33:44.889Z,3.30
2023-04-03T16:36:12.549Z,4.00
2023-04-03T16:38:40.229Z,3.67
2023-04-03T16:41:07.810Z,2.95
2023-04-03T16:43:36.628Z,4.60
2023-04-03T16:46:04.386Z,2.40
2023-04-03T16:48:32.306Z,3.85
2023-04-03T16:51:00.017Z,4.32
2023-04-03T16:53:28.253Z,3.22
2023-04-03T16:55:56.266Z,4.40
2023-04-03T16:58:24.572Z,4.07
2023-04-03T17:00:52.433Z,8.48
2023-04-03T17:03:20.080Z,6.80
2023-04-03T17:05:49.432Z,2.63
2023-04-03T17:08:18.334Z,7.93
2023-04-03T17:10:46.163Z,1.50
2023-04-03T17:13:13.782Z,6.07
2023-04-03T17:15:41.539Z,3.42
2023-04-03T17:18:09.453Z,3.33
2023-04-03T17:20:38.718Z,4.25
2023-04-03T17:23:06.449Z,4.70
2023-04-03T17:25:34.012Z,2.17
2023-04-03T17:28:01.608Z,8.15
2023-04-03T17:30:29.144Z,6.22
2023-04-03T17:32:56.833Z,4.63
2023-04-03T17:35:24.505Z,3.60
2023-04-03T17:37:53.006Z,4.28
2023-04-03T17:40:20.677Z,5.32
2023-04-03T17:42:48.332Z,4.15
2023-04-03T17:45:16.042Z,3.67
2023-04-03T17:47:43.625Z,3.90
2023-04-03T17:50:11.562Z,6.28
2023-04-03T17:52:39.166Z,3.45
2023-04-03T17:55:06.891Z,2.10
2023-04-03T17:57:34.487Z,5.25
2023-04-03T18:00:02.160Z,4.45
2023-04-03T18:02:40.635Z,5.30
2023-04-03T18:05:09.946Z,4.05
2023-04-03T18:07:38.801Z,4.32
2023-04-03T18:10:08.660Z,4.53
2023-04-03T18:12:37.424Z,2.95
2023-04-03T18:15:05.483Z,3.60
2023-04-03T18:17:33.252Z,4.05
2023-04-03T18:20:00.952Z,5.45
2023-04-03T18:22:29.718Z,3.70
2023-04-03T18:24:57.564Z,2.63
2023-04-03T18:27:27.150Z,6.50
2023-04-03T18:29:56.240Z,4.65
2023-04-03T18:32:24.384Z,3.30
2023-04-03T18:34:52.082Z,2.05
2023-04-03T18:37:20.903Z,3.50
2023-04-03T18:39:48.459Z,3.53
2023-04-03T18:42:17.483Z,2.92
2023-04-03T18:44:46.420Z,2.88
2023-04-03T18:47:14.138Z,2.33
2023-04-03T18:49:42.413Z,2.33
2023-04-03T18:52:10.934Z,3.05
2023-04-03T18:54:38.877Z,3.05
2023-04-03T18:57:06.460Z,2.85
2023-04-03T18:59:34.061Z,4.15
2023-04-03T19:02:01.755Z,2.40
2023-04-03T19:04:29.691Z,3.47
2023-04-03T19:06:57.380Z,4.07
2023-04-03T19:09:26.303Z,4.30
2023-04-03T19:11:53.875Z,5.20
2023-04-03T19:14:21.460Z,4.85
2023-04-03T19:16:49.089Z,3.85
2023-04-03T19:19:16.788Z,3.15
2023-04-03T19:21:44.478Z,3.22
2023-04-03T19:24:13.277Z,3.60
2023-04-03T19:26:41.986Z,3.38
2023-04-03T19:29:10.248Z,4.22
2023-04-03T19:31:38.343Z,3.50
2023-04-03T19:34:06.757Z,3.20
2023-04-03T19:36:34.936Z,4.97
2023-04-03T19:39:02.957Z,4.30
2023-04-03T19:41:31.507Z,5.00
2023-04-03T19:43:59.324Z,5.22
2023-04-03T19:46:27.687Z,4.07
2023-04-03T19:48:55.498Z,3.50
2023-04-03T19:51:23.164Z,5.88
2023-04-03T19:53:50.955Z,4.45
2023-04-03T19:56:21.105Z,5.10
2023-04-03T19:58:53.742Z,5.13
2023-04-03T20:01:24.046Z,3.00
2023-04-03T20:03:51.835Z,4.78
2023-04-03T20:06:19.628Z,3.08
2023-04-03T20:08:47.234Z,3.22
2023-04-03T20:11:14.771Z,2.88
2023-04-03T20:13:42.330Z,5.38
2023-04-03T20:16:10.220Z,4.50
2023-04-03T20:18:38.553Z,5.05
2023-04-03T20:21:06.850Z,2.55
2023-04-03T20:23:35.374Z,3.55
2023-04-03T20:26:10.761Z,4.10
2023-04-03T20:28:43.143Z,4.20
2023-04-03T20:31:11.933Z,6.68
2023-04-03T20:33:39.752Z,3.90
2023-04-03T20:36:07.639Z,5.63
2023-04-03T20:38:35.220Z,3.65
2023-04-03T20:41:02.816Z,4.93
2023-04-03T20:43:30.345Z,3.08
2023-04-03T20:46:01.265Z,5.82
2023-04-03T20:48:30.054Z,3.83
2023-04-03T20:50:58.276Z,5.38
2023-04-03T20:53:27.085Z,3.55
2023-04-03T20:55:55.361Z,4.20
2023-04-03T20:58:24.997Z,3.08
2023-04-03T21:00:56.274Z,3.30
2023-04-03T21:03:25.349Z,6.03
2023-04-03T21:06:01.809Z,4.90
2023-04-03T21:08:49.218Z,2.50
2023-04-03T21:11:36.305Z,3.05
2023-04-03T21:14:27.665Z,3.83
2023-04-03T21:16:55.315Z,3.25
2023-04-03T21:19:23.078Z,4.00
2023-04-03T21:21:51.981Z,6.85
2023-04-03T21:24:20.093Z,4.03
2023-04-03T21:26:47.791Z,4.00
2023-04-03T21:29:15.639Z,3.60
2023-04-03T21:31:51.399Z,4.25
2023-04-03T21:34:20.004Z,7.00
2023-04-03T21:36:49.850Z,2.60
2023-04-03T21:39:17.696Z,4.63
2023-04-03T21:41:45.460Z,4.07
2023-04-03T21:44:13.022Z,3.08
2023-04-03T21:46:40.720Z,5.10
2023-04-03T21:49:08.400Z,3.85
2023-04-03T21:51:36.773Z,5.03
2023-04-03T21:54:04.358Z,5.03
2023-04-03T21:56:32.242Z,3.17
2023-04-03T21:59:02.998Z,7.03
2023-04-03T22:01:32.301Z,4.93
2023-04-03T22:04:01.745Z,3.63
2023-04-03T22:06:29.737Z,5.78
2023-04-03T22:08:57.356Z,2.63
2023-04-03T22:11:27.129Z,4.03
2023-04-03T22:13:55.638Z,3.28
2023-04-03T22:16:23.998Z,5.50
2023-04-03T22:18:53.033Z,4.53
2023-04-03T22:21:21.309Z,3.75
2023-04-03T22:23:48.911Z,5.47
2023-04-03T22:26:16.484Z,4.45
2023-04-03T22:28:47.980Z,4.68
2023-04-03T22:31:16.388Z,4.53
2023-04-03T22:33:45.334Z,3.72
2023-04-03T22:36:13.932Z,4.75
2023-04-03T22:38:45.516Z,5.18
2023-04-03T22:41:13.138Z,8.07
2023-04-03T22:43:40.807Z,3.92
2023-04-03T22:46:09.208Z,3.63
2023-04-03T22:48:38.491Z,6.00
2023-04-03T22:51:10.338Z,6.43
2023-04-03T22:53:38.339Z,4.35
2023-04-03T22:56:13.728Z,4.80
2023-04-03T22:58:41.378Z,4.80
2023-04-03T23:01:12.967Z,5.63
2023-04-03T23:03:41.207Z,3.97
2023-04-03T23:06:09.647Z,3.42
2023-04-03T23:08:40.474Z,3.33
2023-04-03T23:11:09.421Z,4.60
2023-04-03T23:13:37.513Z,4.32
2023-04-03T23:16:05.384Z,4.65
2023-04-03T23:18:33.426Z,4.75
2023-04-03T23:21:01.747Z,3.17
2023-04-03T23:23:29.381Z,3.25
2023-04-03T23:25:58.960Z,4.28
2023-04-03T23:28:27.238Z,2.75
2023-04-03T23:31:03.209Z,3.60
2023-04-03T23:33:31.524Z,3.75
2023-04-03T23:36:00.141Z,5.43
2023-04-03T23:38:27.832Z,3.28
2023-04-03T23:40:55.806Z,3.60
2023-04-03T23:43:23.523Z,3.42
2023-04-03T23:45:51.556Z,3.60
2023-04-03T23:48:19.236Z,6.03
2023-04-03T23:50:46.862Z,4.05
2023-04-03T23:53:14.643Z,3.75
2023-04-03T23:55:42.382Z,3.88
2023-04-03T23:58:10.924Z,3.65
